sensor_id;sensor_type;location;lat;lon;timestamp;P1;P2;P0
62547;PMS7003;48602;45.192;5.722;2023-07-24T00:02:07;13.00;11.75;9.75
62547;PMS7003;48602;45.192;5.722;2023-07-24T00:04:33;11.50;11.50;9.00
62547;PMS7003;48602;45.192;5.722;2023-07-24T00:06:59;12.75;12.00;11.00
62547;PMS7003;48602;45.192;5.722;2023-07-24T00:09:25;13.00;10.60;8.80
62547;PMS7003;48602;45.192;5.722;2023-07-24T00:11:51;14.25;11.50;9.50
62547;PMS7003;48602;45.192;5.722;2023-07-24T00:14:16;11.25;10.25;8.75
62547;PMS7003;48602;45.192;5.722;2023-07-24T00:16:42;13.25;10.75;9.00
62547;PMS7003;48602;45.192;5.722;2023-07-24T00:19:07;14.00;11.75;9.75
62547;PMS7003;48602;45.192;5.722;2023-07-24T00:21:33;14.00;11.75;11.00
62547;PMS7003;48602;45.192;5.722;2023-07-24T00:23:58;11.50;11.25;8.75
62547;PMS7003;48602;45.192;5.722;2023-07-24T00:26:23;11.75;10.00;8.75
62547;PMS7003;48602;45.192;5.722;2023-07-24T00:28:49;13.00;11.75;9.25
62547;PMS7003;48602;45.192;5.722;2023-07-24T00:31:14;12.25;11.25;8.50
62547;PMS7003;48602;45.192;5.722;2023-07-24T00:33:40;15.00;13.00;11.00
62547;PMS7003;48602;45.192;5.722;2023-07-24T00:36:05;11.75;9.25;8.00
62547;PMS7003;48602;45.192;5.722;2023-07-24T00:38:30;14.00;12.25;11.00
62547;PMS7003;48602;45.192;5.722;2023-07-24T00:40:56;11.75;10.50;9.00
62547;PMS7003;48602;45.192;5.722;2023-07-24T00:43:21;11.00;11.00;10.00
62547;PMS7003;48602;45.192;5.722;2023-07-24T00:45:47;12.00;12.00;9.25
62547;PMS7003;48602;45.192;5.722;2023-07-24T00:48:13;11.40;10.60;9.40
62547;PMS7003;48602;45.192;5.722;2023-07-24T00:50:39;12.50;11.75;8.75
62547;PMS7003;48602;45.192;5.722;2023-07-24T00:53:06;10.25;9.00;8.25
62547;PMS7003;48602;45.192;5.722;2023-07-24T00:55:31;11.75;10.00;7.00
62547;PMS7003;48602;45.192;5.722;2023-07-24T00:58:00;13.75;12.50;9.75
62547;PMS7003;48602;45.192;5.722;2023-07-24T01:00:27;11.25;11.25;9.00
62547;PMS7003;48602;45.192;5.722;2023-07-24T01:02:52;13.50;11.75;10.00
62547;PMS7003;48602;45.192;5.722;2023-07-24T01:05:19;14.50;13.00;11.75
62547;PMS7003;48602;45.192;5.722;2023-07-24T01:07:46;12.60;12.60;9.40
62547;PMS7003;48602;45.192;5.722;2023-07-24T01:10:12;10.75;10.75;8.50
62547;PMS7003;48602;45.192;5.722;2023-07-24T01:15:20;13.00;9.50;9.50
62547;PMS7003;48602;45.192;5.722;2023-07-24T01:17:50;9.20;9.20;7.60
62547;PMS7003;48602;45.192;5.722;2023-07-24T01:20:22;14.75;12.75;10.25
62547;PMS7003;48602;45.192;5.722;2023-07-24T01:28:26;10.00;8.80;7.60
62547;PMS7003;48602;45.192;5.722;2023-07-24T01:30:51;13.50;12.25;9.00
62547;PMS7003;48602;45.192;5.722;2023-07-24T01:33:17;13.75;12.50;9.50
62547;PMS7003;48602;45.192;5.722;2023-07-24T01:35:44;11.25;11.00;9.25
62547;PMS7003;48602;45.192;5.722;2023-07-24T01:38:13;15.50;12.00;9.75
62547;PMS7003;48602;45.192;5.722;2023-07-24T01:40:42;10.00;10.00;8.00
62547;PMS7003;48602;45.192;5.722;2023-07-24T01:43:08;11.00;11.00;8.75
62547;PMS7003;48602;45.192;5.722;2023-07-24T01:45:34;16.25;11.75;9.00
62547;PMS7003;48602;45.192;5.722;2023-07-24T01:48:01;11.20;11.20;8.40
62547;PMS7003;48602;45.192;5.722;2023-07-24T01:50:28;13.50;12.75;10.00
62547;PMS7003;48602;45.192;5.722;2023-07-24T01:52:54;13.75;13.75;10.75
62547;PMS7003;48602;45.192;5.722;2023-07-24T01:55:19;16.00;16.00;12.50
62547;PMS7003;48602;45.192;5.722;2023-07-24T01:57:44;11.25;10.50;7.50
62547;PMS7003;48602;45.192;5.722;2023-07-24T02:00:10;8.50;7.50;5.25
62547;PMS7003;48602;45.192;5.722;2023-07-24T02:02:36;12.25;9.25;7.50
62547;PMS7003;48602;45.192;5.722;2023-07-24T02:05:01;8.75;7.75;5.00
62547;PMS7003;48602;45.192;5.722;2023-07-24T02:07:26;9.00;9.00;6.25
62547;PMS7003;48602;45.192;5.722;2023-07-24T02:09:52;8.75;6.25;5.75
62547;PMS7003;48602;45.192;5.722;2023-07-24T02:12:17;6.25;6.25;5.00
62547;PMS7003;48602;45.192;5.722;2023-07-24T02:14:42;12.75;12.00;11.00
62547;PMS7003;48602;45.192;5.722;2023-07-24T02:17:08;13.50;10.75;8.25
62547;PMS7003;48602;45.192;5.722;2023-07-24T02:19:33;11.25;11.00;10.25
62547;PMS7003;48602;45.192;5.722;2023-07-24T02:21:58;12.00;11.00;9.00
62547;PMS7003;48602;45.192;5.722;2023-07-24T02:24:24;13.00;12.00;9.50
62547;PMS7003;48602;45.192;5.722;2023-07-24T02:26:49;14.50;12.50;10.25
62547;PMS7003;48602;45.192;5.722;2023-07-24T02:29:15;13.00;11.00;9.00
62547;PMS7003;48602;45.192;5.722;2023-07-24T02:31:40;15.25;12.75;10.00
62547;PMS7003;48602;45.192;5.722;2023-07-24T02:34:05;15.50;14.00;10.00
62547;PMS7003;48602;45.192;5.722;2023-07-24T02:36:31;12.00;12.00;9.00
62547;PMS7003;48602;45.192;5.722;2023-07-24T02:38:56;12.50;11.00;9.00
62547;PMS7003;48602;45.192;5.722;2023-07-24T02:41:22;7.00;6.50;5.00
62547;PMS7003;48602;45.192;5.722;2023-07-24T02:43:47;8.75;7.25;7.00
62547;PMS7003;48602;45.192;5.722;2023-07-24T02:46:12;13.75;11.75;9.25
62547;PMS7003;48602;45.192;5.722;2023-07-24T02:48:38;11.25;11.00;8.50
62547;PMS7003;48602;45.192;5.722;2023-07-24T02:51:03;12.75;11.50;10.00
62547;PMS7003;48602;45.192;5.722;2023-07-24T02:53:28;12.75;11.25;9.00
62547;PMS7003;48602;45.192;5.722;2023-07-24T02:55:54;12.00;10.50;7.25
62547;PMS7003;48602;45.192;5.722;2023-07-24T02:58:19;10.50;10.00;8.50
62547;PMS7003;48602;45.192;5.722;2023-07-24T03:00:44;13.50;10.50;8.50
62547;PMS7003;48602;45.192;5.722;2023-07-24T03:03:10;12.75;11.50;8.50
62547;PMS7003;48602;45.192;5.722;2023-07-24T03:05:35;12.25;11.25;9.50
62547;PMS7003;48602;45.192;5.722;2023-07-24T03:08:01;14.75;13.00;10.75
62547;PMS7003;48602;45.192;5.722;2023-07-24T03:10:26;13.50;11.25;10.00
62547;PMS7003;48602;45.192;5.722;2023-07-24T03:12:52;12.25;11.00;10.00
62547;PMS7003;48602;45.192;5.722;2023-07-24T03:15:18;11.25;10.75;9.00
62547;PMS7003;48602;45.192;5.722;2023-07-24T03:17:44;10.00;10.00;8.00
62547;PMS7003;48602;45.192;5.722;2023-07-24T03:20:09;13.75;11.25;9.00
62547;PMS7003;48602;45.192;5.722;2023-07-24T03:22:38;12.75;10.00;7.75
62547;PMS7003;48602;45.192;5.722;2023-07-24T03:25:05;12.00;11.20;8.00
62547;PMS7003;48602;45.192;5.722;2023-07-24T03:27:31;12.25;9.25;7.75
62547;PMS7003;48602;45.192;5.722;2023-07-24T03:29:56;10.75;10.00;8.00
62547;PMS7003;48602;45.192;5.722;2023-07-24T03:32:22;12.25;11.00;9.25
62547;PMS7003;48602;45.192;5.722;2023-07-24T03:34:47;10.00;10.00;9.00
62547;PMS7003;48602;45.192;5.722;2023-07-24T03:37:12;11.25;10.25;9.00
62547;PMS7003;48602;45.192;5.722;2023-07-24T03:39:38;12.00;11.50;8.50
62547;PMS7003;48602;45.192;5.722;2023-07-24T03:42:03;10.75;10.75;9.00
62547;PMS7003;48602;45.192;5.722;2023-07-24T03:44:29;11.50;9.75;7.75
62547;PMS7003;48602;45.192;5.722;2023-07-24T03:46:54;10.50;8.50;7.75
62547;PMS7003;48602;45.192;5.722;2023-07-24T03:49:19;11.75;11.00;8.75
62547;PMS7003;48602;45.192;5.722;2023-07-24T03:51:45;13.50;12.00;8.75
62547;PMS7003;48602;45.192;5.722;2023-07-24T03:54:10;14.50;12.25;9.75
62547;PMS7003;48602;45.192;5.722;2023-07-24T03:56:36;11.50;10.75;9.00
62547;PMS7003;48602;45.192;5.722;2023-07-24T03:59:01;12.25;11.75;9.00
62547;PMS7003;48602;45.192;5.722;2023-07-24T04:01:26;13.75;13.75;11.50
62547;PMS7003;48602;45.192;5.722;2023-07-24T04:03:52;13.25;11.75;9.50
62547;PMS7003;48602;45.192;5.722;2023-07-24T04:06:17;16.00;14.50;11.00
62547;PMS7003;48602;45.192;5.722;2023-07-24T04:08:43;17.25;17.00;14.00
62547;PMS7003;48602;45.192;5.722;2023-07-24T04:11:08;19.75;18.75;13.25
62547;PMS7003;48602;45.192;5.722;2023-07-24T04:13:34;17.00;14.00;11.25
62547;PMS7003;48602;45.192;5.722;2023-07-24T04:15:59;20.00;15.25;11.75
62547;PMS7003;48602;45.192;5.722;2023-07-24T04:18:24;14.00;13.00;9.50
62547;PMS7003;48602;45.192;5.722;2023-07-24T04:20:50;16.75;15.00;12.00
62547;PMS7003;48602;45.192;5.722;2023-07-24T04:23:15;12.25;11.50;9.75
62547;PMS7003;48602;45.192;5.722;2023-07-24T04:25:40;10.25;9.25;6.00
62547;PMS7003;48602;45.192;5.722;2023-07-24T04:28:06;13.50;13.50;10.75
62547;PMS7003;48602;45.192;5.722;2023-07-24T04:30:32;14.50;13.00;9.25
62547;PMS7003;48602;45.192;5.722;2023-07-24T04:32:57;17.25;14.25;11.50
62547;PMS7003;48602;45.192;5.722;2023-07-24T04:35:23;15.00;13.00;11.25
62547;PMS7003;48602;45.192;5.722;2023-07-24T04:37:48;15.00;13.00;10.50
62547;PMS7003;48602;45.192;5.722;2023-07-24T04:40:16;15.75;12.00;9.25
62547;PMS7003;48602;45.192;5.722;2023-07-24T04:42:41;9.75;8.75;6.75
62547;PMS7003;48602;45.192;5.722;2023-07-24T04:45:07;9.50;8.75;6.00
62547;PMS7003;48602;45.192;5.722;2023-07-24T04:47:33;10.00;10.00;8.00
62547;PMS7003;48602;45.192;5.722;2023-07-24T04:49:58;10.75;9.00;8.00
62547;PMS7003;48602;45.192;5.722;2023-07-24T04:52:23;12.75;11.25;9.00
62547;PMS7003;48602;45.192;5.722;2023-07-24T04:54:49;21.00;15.75;11.75
62547;PMS7003;48602;45.192;5.722;2023-07-24T04:57:14;15.25;15.25;11.25
62547;PMS7003;48602;45.192;5.722;2023-07-24T04:59:39;19.00;15.50;12.50
62547;PMS7003;48602;45.192;5.722;2023-07-24T05:02:05;21.00;19.00;13.50
62547;PMS7003;48602;45.192;5.722;2023-07-24T05:04:30;18.00;17.00;13.00
62547;PMS7003;48602;45.192;5.722;2023-07-24T05:06:55;14.75;14.75;11.00
62547;PMS7003;48602;45.192;5.722;2023-07-24T05:09:21;14.75;14.75;11.75
62547;PMS7003;48602;45.192;5.722;2023-07-24T05:11:46;20.25;16.50;12.00
62547;PMS7003;48602;45.192;5.722;2023-07-24T05:14:11;14.50;14.50;11.50
62547;PMS7003;48602;45.192;5.722;2023-07-24T05:16:37;15.00;13.50;10.00
62547;PMS7003;48602;45.192;5.722;2023-07-24T05:19:02;16.25;13.25;11.00
62547;PMS7003;48602;45.192;5.722;2023-07-24T05:21:28;16.00;10.75;8.75
62547;PMS7003;48602;45.192;5.722;2023-07-24T05:23:53;16.00;12.25;10.50
62547;PMS7003;48602;45.192;5.722;2023-07-24T05:26:18;16.25;15.25;11.75
62547;PMS7003;48602;45.192;5.722;2023-07-24T05:28:44;14.00;14.00;10.25
62547;PMS7003;48602;45.192;5.722;2023-07-24T05:31:09;13.25;13.25;10.00
62547;PMS7003;48602;45.192;5.722;2023-07-24T05:33:34;12.50;10.75;9.00
62547;PMS7003;48602;45.192;5.722;2023-07-24T05:36:01;16.00;15.25;10.50
62547;PMS7003;48602;45.192;5.722;2023-07-24T05:38:28;19.25;18.25;13.75
62547;PMS7003;48602;45.192;5.722;2023-07-24T05:41:01;18.75;18.25;13.50
62547;PMS7003;48602;45.192;5.722;2023-07-24T05:43:28;19.25;17.50;11.25
62547;PMS7003;48602;45.192;5.722;2023-07-24T05:45:55;17.50;15.75;14.00
62547;PMS7003;48602;45.192;5.722;2023-07-24T05:48:21;25.50;23.75;20.25
62547;PMS7003;48602;45.192;5.722;2023-07-24T05:50:47;17.25;17.25;12.00
62547;PMS7003;48602;45.192;5.722;2023-07-24T05:53:13;19.25;18.75;14.75
62547;PMS7003;48602;45.192;5.722;2023-07-24T05:55:39;16.25;16.25;14.50
62547;PMS7003;48602;45.192;5.722;2023-07-24T05:58:05;18.25;16.75;13.75
62547;PMS7003;48602;45.192;5.722;2023-07-24T06:00:30;19.00;17.75;13.75
62547;PMS7003;48602;45.192;5.722;2023-07-24T06:02:56;19.25;18.25;15.00
62547;PMS7003;48602;45.192;5.722;2023-07-24T06:05:21;19.25;12.50;9.00
62547;PMS7003;48602;45.192;5.722;2023-07-24T06:07:46;17.50;15.50;11.75
62547;PMS7003;48602;45.192;5.722;2023-07-24T06:10:12;18.50;18.50;13.50
62547;PMS7003;48602;45.192;5.722;2023-07-24T06:12:38;17.50;15.50;11.75
62547;PMS7003;48602;45.192;5.722;2023-07-24T06:15:03;18.75;17.75;13.00
62547;PMS7003;48602;45.192;5.722;2023-07-24T06:17:30;17.50;16.00;14.00
62547;PMS7003;48602;45.192;5.722;2023-07-24T06:19:55;16.50;16.50;11.75
62547;PMS7003;48602;45.192;5.722;2023-07-24T06:22:21;10.50;10.50;8.75
62547;PMS7003;48602;45.192;5.722;2023-07-24T06:24:47;17.25;16.25;12.25
62547;PMS7003;48602;45.192;5.722;2023-07-24T06:27:12;18.00;18.00;14.25
62547;PMS7003;48602;45.192;5.722;2023-07-24T06:29:37;17.00;15.00;11.00
62547;PMS7003;48602;45.192;5.722;2023-07-24T06:32:03;14.25;14.25;11.50
62547;PMS7003;48602;45.192;5.722;2023-07-24T06:34:29;14.50;13.00;9.00
62547;PMS7003;48602;45.192;5.722;2023-07-24T06:36:54;19.25;15.75;12.25
62547;PMS7003;48602;45.192;5.722;2023-07-24T06:39:19;17.75;14.50;11.00
62547;PMS7003;48602;45.192;5.722;2023-07-24T06:41:45;19.25;15.00;12.25
62547;PMS7003;48602;45.192;5.722;2023-07-24T06:44:11;15.75;15.00;11.25
62547;PMS7003;48602;45.192;5.722;2023-07-24T06:46:36;18.25;16.75;13.00
62547;PMS7003;48602;45.192;5.722;2023-07-24T06:49:02;18.75;16.25;13.25
62547;PMS7003;48602;45.192;5.722;2023-07-24T06:51:27;15.00;12.50;10.75
62547;PMS7003;48602;45.192;5.722;2023-07-24T06:53:52;19.50;15.00;11.00
62547;PMS7003;48602;45.192;5.722;2023-07-24T06:56:18;12.50;12.25;10.50
62547;PMS7003;48602;45.192;5.722;2023-07-24T06:58:43;15.25;14.50;11.75
62547;PMS7003;48602;45.192;5.722;2023-07-24T07:01:08;12.75;12.75;10.00
62547;PMS7003;48602;45.192;5.722;2023-07-24T07:03:34;19.00;15.50;12.00
62547;PMS7003;48602;45.192;5.722;2023-07-24T07:06:02;13.75;13.25;11.25
62547;PMS7003;48602;45.192;5.722;2023-07-24T07:08:28;15.25;15.25;11.75
62547;PMS7003;48602;45.192;5.722;2023-07-24T07:10:58;16.25;14.00;11.00
62547;PMS7003;48602;45.192;5.722;2023-07-24T07:13:25;17.50;17.25;12.50
62547;PMS7003;48602;45.192;5.722;2023-07-24T07:15:51;16.25;16.00;12.00
62547;PMS7003;48602;45.192;5.722;2023-07-24T07:18:16;16.00;15.75;12.25
62547;PMS7003;48602;45.192;5.722;2023-07-24T07:20:48;15.75;14.75;10.50
62547;PMS7003;48602;45.192;5.722;2023-07-24T07:23:15;18.50;15.50;12.75
62547;PMS7003;48602;45.192;5.722;2023-07-24T07:25:40;17.25;14.75;11.00
62547;PMS7003;48602;45.192;5.722;2023-07-24T07:28:08;13.50;12.00;8.00
62547;PMS7003;48602;45.192;5.722;2023-07-24T07:30:34;17.00;15.00;11.00
62547;PMS7003;48602;45.192;5.722;2023-07-24T07:32:59;15.00;14.75;12.00
62547;PMS7003;48602;45.192;5.722;2023-07-24T07:35:25;12.25;11.75;10.00
62547;PMS7003;48602;45.192;5.722;2023-07-24T07:37:50;16.25;15.50;11.50
62547;PMS7003;48602;45.192;5.722;2023-07-24T07:40:16;16.25;14.50;11.25
62547;PMS7003;48602;45.192;5.722;2023-07-24T07:42:41;15.25;13.50;11.25
62547;PMS7003;48602;45.192;5.722;2023-07-24T07:45:07;14.50;14.50;13.00
62547;PMS7003;48602;45.192;5.722;2023-07-24T07:47:32;15.25;14.50;10.00
62547;PMS7003;48602;45.192;5.722;2023-07-24T07:49:58;13.50;12.25;9.75
62547;PMS7003;48602;45.192;5.722;2023-07-24T07:52:23;16.50;15.50;12.50
62547;PMS7003;48602;45.192;5.722;2023-07-24T07:54:49;19.75;17.75;13.00
62547;PMS7003;48602;45.192;5.722;2023-07-24T07:57:14;14.00;13.25;10.75
62547;PMS7003;48602;45.192;5.722;2023-07-24T07:59:40;16.00;13.75;10.75
62547;PMS7003;48602;45.192;5.722;2023-07-24T08:02:06;13.25;13.25;10.50
62547;PMS7003;48602;45.192;5.722;2023-07-24T08:04:31;19.00;16.25;12.25
62547;PMS7003;48602;45.192;5.722;2023-07-24T08:06:57;14.50;14.50;11.75
62547;PMS7003;48602;45.192;5.722;2023-07-24T08:09:22;19.25;17.00;13.00
62547;PMS7003;48602;45.192;5.722;2023-07-24T08:11:49;16.25;16.00;12.50
62547;PMS7003;48602;45.192;5.722;2023-07-24T08:14:15;17.00;17.00;14.25
62547;PMS7003;48602;45.192;5.722;2023-07-24T08:16:41;16.25;15.00;12.00
62547;PMS7003;48602;45.192;5.722;2023-07-24T08:19:06;9.25;8.25;8.00
62547;PMS7003;48602;45.192;5.722;2023-07-24T08:21:31;16.75;15.00;11.00
62547;PMS7003;48602;45.192;5.722;2023-07-24T08:23:57;15.25;15.00;12.25
62547;PMS7003;48602;45.192;5.722;2023-07-24T08:26:23;15.50;14.50;12.00
62547;PMS7003;48602;45.192;5.722;2023-07-24T08:28:51;14.75;14.50;10.75
62547;PMS7003;48602;45.192;5.722;2023-07-24T08:31:16;16.75;13.50;11.50
62547;PMS7003;48602;45.192;5.722;2023-07-24T08:33:42;16.00;14.25;11.25
62547;PMS7003;48602;45.192;5.722;2023-07-24T08:36:07;13.00;11.50;8.00
62547;PMS7003;48602;45.192;5.722;2023-07-24T08:38:33;16.50;12.25;10.50
62547;PMS7003;48602;45.192;5.722;2023-07-24T08:41:00;15.25;14.25;11.25
62547;PMS7003;48602;45.192;5.722;2023-07-24T08:43:30;15.00;13.00;10.25
62547;PMS7003;48602;45.192;5.722;2023-07-24T08:45:57;13.80;13.60;10.80
62547;PMS7003;48602;45.192;5.722;2023-07-24T08:48:24;15.80;14.60;11.40
62547;PMS7003;48602;45.192;5.722;2023-07-24T08:50:54;14.25;13.50;10.50
62547;PMS7003;48602;45.192;5.722;2023-07-24T08:53:21;12.20;11.40;9.00
62547;PMS7003;48602;45.192;5.722;2023-07-24T08:55:48;11.00;10.20;8.20
62547;PMS7003;48602;45.192;5.722;2023-07-24T08:58:16;16.60;12.40;9.60
62547;PMS7003;48602;45.192;5.722;2023-07-24T09:00:41;17.75;14.50;11.50
62547;PMS7003;48602;45.192;5.722;2023-07-24T09:03:07;12.50;11.50;9.75
62547;PMS7003;48602;45.192;5.722;2023-07-24T09:05:33;12.40;10.80;9.40
62547;PMS7003;48602;45.192;5.722;2023-07-24T09:07:59;11.25;11.25;8.50
62547;PMS7003;48602;45.192;5.722;2023-07-24T09:10:24;13.25;12.00;9.25
62547;PMS7003;48602;45.192;5.722;2023-07-24T09:12:51;13.80;11.40;10.20
62547;PMS7003;48602;45.192;5.722;2023-07-24T09:15:16;11.75;10.75;10.25
62547;PMS7003;48602;45.192;5.722;2023-07-24T09:17:48;13.50;12.00;9.50
62547;PMS7003;48602;45.192;5.722;2023-07-24T09:20:18;11.25;10.25;8.75
62547;PMS7003;48602;45.192;5.722;2023-07-24T09:22:49;20.00;12.50;10.75
62547;PMS7003;48602;45.192;5.722;2023-07-24T09:25:15;12.80;11.00;9.00
62547;PMS7003;48602;45.192;5.722;2023-07-24T09:27:40;12.00;11.00;10.00
62547;PMS7003;48602;45.192;5.722;2023-07-24T09:30:15;15.00;14.00;10.75
62547;PMS7003;48602;45.192;5.722;2023-07-24T09:32:42;15.50;14.00;11.50
62547;PMS7003;48602;45.192;5.722;2023-07-24T09:35:17;16.75;15.25;11.50
62547;PMS7003;48602;45.192;5.722;2023-07-24T09:37:45;15.00;14.25;12.25
62547;PMS7003;48602;45.192;5.722;2023-07-24T09:40:12;14.00;13.00;10.50
62547;PMS7003;48602;45.192;5.722;2023-07-24T09:42:40;14.75;13.25;11.00
62547;PMS7003;48602;45.192;5.722;2023-07-24T09:45:06;16.75;15.00;12.75
62547;PMS7003;48602;45.192;5.722;2023-07-24T09:47:33;12.20;10.20;9.40
62547;PMS7003;48602;45.192;5.722;2023-07-24T09:49:59;12.50;12.50;9.50
62547;PMS7003;48602;45.192;5.722;2023-07-24T09:52:28;14.00;13.00;11.00
62547;PMS7003;48602;45.192;5.722;2023-07-24T09:57:24;16.50;13.00;9.75
62547;PMS7003;48602;45.192;5.722;2023-07-24T09:59:51;16.00;14.50;11.75
62547;PMS7003;48602;45.192;5.722;2023-07-24T10:02:21;15.25;15.00;11.00
62547;PMS7003;48602;45.192;5.722;2023-07-24T10:04:47;12.00;11.60;10.80
62547;PMS7003;48602;45.192;5.722;2023-07-24T10:07:13;15.75;14.25;12.25
62547;PMS7003;48602;45.192;5.722;2023-07-24T10:09:41;16.75;11.50;9.50
62547;PMS7003;48602;45.192;5.722;2023-07-24T10:12:08;15.20;13.60;11.20
62547;PMS7003;48602;45.192;5.722;2023-07-24T10:14:34;14.00;14.00;10.80
62547;PMS7003;48602;45.192;5.722;2023-07-24T10:17:01;15.25;15.25;11.75
62547;PMS7003;48602;45.192;5.722;2023-07-24T10:19:35;15.75;13.50;10.25
62547;PMS7003;48602;45.192;5.722;2023-07-24T10:22:10;13.50;13.50;10.50
62547;PMS7003;48602;45.192;5.722;2023-07-24T10:24:43;13.80;13.80;11.60
62547;PMS7003;48602;45.192;5.722;2023-07-24T10:27:09;17.50;14.00;12.00
62547;PMS7003;48602;45.192;5.722;2023-07-24T10:29:36;14.75;13.25;11.25
62547;PMS7003;48602;45.192;5.722;2023-07-24T10:32:02;17.00;15.25;11.50
62547;PMS7003;48602;45.192;5.722;2023-07-24T10:34:40;13.25;11.50;9.25
62547;PMS7003;48602;45.192;5.722;2023-07-24T10:37:07;14.75;11.75;9.75
62547;PMS7003;48602;45.192;5.722;2023-07-24T10:39:37;13.50;13.50;12.00
62547;PMS7003;48602;45.192;5.722;2023-07-24T10:42:05;11.00;10.60;8.20
62547;PMS7003;48602;45.192;5.722;2023-07-24T10:44:31;14.80;13.00;9.80
62547;PMS7003;48602;45.192;5.722;2023-07-24T10:46:57;13.25;13.25;10.50
62547;PMS7003;48602;45.192;5.722;2023-07-24T10:49:22;13.75;12.75;10.50
62547;PMS7003;48602;45.192;5.722;2023-07-24T10:51:54;14.20;14.20;10.80
62547;PMS7003;48602;45.192;5.722;2023-07-24T10:54:22;12.20;11.20;8.40
62547;PMS7003;48602;45.192;5.722;2023-07-24T10:56:48;12.25;11.75;9.50
62547;PMS7003;48602;45.192;5.722;2023-07-24T10:59:13;8.50;7.25;6.25
62547;PMS7003;48602;45.192;5.722;2023-07-24T11:01:40;10.60;10.60;8.60
62547;PMS7003;48602;45.192;5.722;2023-07-24T11:04:06;10.60;10.20;9.40
62547;PMS7003;48602;45.192;5.722;2023-07-24T11:06:32;10.00;8.40;6.20
62547;PMS7003;48602;45.192;5.722;2023-07-24T11:08:58;12.50;11.25;9.75
62547;PMS7003;48602;45.192;5.722;2023-07-24T11:11:31;12.00;10.00;8.20
62547;PMS7003;48602;45.192;5.722;2023-07-24T11:13:58;10.20;9.20;8.00
62547;PMS7003;48602;45.192;5.722;2023-07-24T11:16:24;12.60;11.40;8.40
62547;PMS7003;48602;45.192;5.722;2023-07-24T11:18:50;11.25;10.50;8.75
62547;PMS7003;48602;45.192;5.722;2023-07-24T11:21:20;13.60;11.20;9.20
62547;PMS7003;48602;45.192;5.722;2023-07-24T11:23:51;9.40;9.40;7.60
62547;PMS7003;48602;45.192;5.722;2023-07-24T11:26:18;16.80;12.00;10.00
62547;PMS7003;48602;45.192;5.722;2023-07-24T11:28:45;10.00;8.75;7.75
62547;PMS7003;48602;45.192;5.722;2023-07-24T11:31:10;13.50;12.50;9.75
62547;PMS7003;48602;45.192;5.722;2023-07-24T11:33:36;10.60;9.00;7.80
62547;PMS7003;48602;45.192;5.722;2023-07-24T11:36:02;13.80;11.00;8.80
62547;PMS7003;48602;45.192;5.722;2023-07-24T11:38:28;10.00;10.00;8.50
62547;PMS7003;48602;45.192;5.722;2023-07-24T11:40:54;10.50;9.50;8.25
62547;PMS7003;48602;45.192;5.722;2023-07-24T11:43:23;12.40;10.60;8.40
62547;PMS7003;48602;45.192;5.722;2023-07-24T11:45:51;10.80;9.80;6.00
62547;PMS7003;48602;45.192;5.722;2023-07-24T11:48:18;12.25;11.25;10.00
62547;PMS7003;48602;45.192;5.722;2023-07-24T11:50:45;12.20;9.00;6.60
62547;PMS7003;48602;45.192;5.722;2023-07-24T11:55:58;9.40;9.20;7.20
62547;PMS7003;48602;45.192;5.722;2023-07-24T11:58:28;10.00;10.00;8.25
62547;PMS7003;48602;45.192;5.722;2023-07-24T12:00:55;11.40;11.20;9.20
62547;PMS7003;48602;45.192;5.722;2023-07-24T12:03:24;12.00;9.60;8.80
62547;PMS7003;48602;45.192;5.722;2023-07-24T12:05:51;15.20;12.20;8.60
62547;PMS7003;48602;45.192;5.722;2023-07-24T12:08:21;11.00;11.00;7.25
62547;PMS7003;48602;45.192;5.722;2023-07-24T12:10:55;11.20;11.20;9.00
62547;PMS7003;48602;45.192;5.722;2023-07-24T12:13:21;13.75;12.75;9.75
62547;PMS7003;48602;45.192;5.722;2023-07-24T12:15:46;10.00;10.00;8.75
62547;PMS7003;48602;45.192;5.722;2023-07-24T12:18:12;11.00;11.00;10.00
62547;PMS7003;48602;45.192;5.722;2023-07-24T12:20:37;11.50;11.50;9.50
62547;PMS7003;48602;45.192;5.722;2023-07-24T12:23:02;13.75;11.50;10.00
62547;PMS7003;48602;45.192;5.722;2023-07-24T12:25:28;13.75;11.75;9.50
62547;PMS7003;48602;45.192;5.722;2023-07-24T12:27:53;16.00;14.75;10.50
62547;PMS7003;48602;45.192;5.722;2023-07-24T12:30:19;14.75;14.00;10.00
62547;PMS7003;48602;45.192;5.722;2023-07-24T12:32:44;12.25;12.25;10.00
62547;PMS7003;48602;45.192;5.722;2023-07-24T12:35:10;12.75;12.25;11.25
62547;PMS7003;48602;45.192;5.722;2023-07-24T12:37:35;14.25;13.25;11.50
62547;PMS7003;48602;45.192;5.722;2023-07-24T12:40:01;16.00;13.75;11.25
62547;PMS7003;48602;45.192;5.722;2023-07-24T12:42:27;14.00;13.60;11.60
62547;PMS7003;48602;45.192;5.722;2023-07-24T12:44:52;12.50;11.75;10.50
62547;PMS7003;48602;45.192;5.722;2023-07-24T12:47:18;13.75;12.00;10.50
62547;PMS7003;48602;45.192;5.722;2023-07-24T12:49:43;16.00;11.50;9.50
62547;PMS7003;48602;45.192;5.722;2023-07-24T12:52:09;14.25;14.25;10.00
62547;PMS7003;48602;45.192;5.722;2023-07-24T12:54:35;9.40;9.40;9.00
62547;PMS7003;48602;45.192;5.722;2023-07-24T12:57:01;12.50;12.50;11.00
62547;PMS7003;48602;45.192;5.722;2023-07-24T12:59:27;14.75;13.25;10.50
62547;PMS7003;48602;45.192;5.722;2023-07-24T13:01:53;7.00;7.00;6.40
62547;PMS7003;48602;45.192;5.722;2023-07-24T13:04:19;14.25;13.00;9.50
62547;PMS7003;48602;45.192;5.722;2023-07-24T13:06:45;15.25;14.00;12.25
62547;PMS7003;48602;45.192;5.722;2023-07-24T13:09:10;19.00;15.00;12.25
62547;PMS7003;48602;45.192;5.722;2023-07-24T13:11:36;12.25;11.50;10.00
62547;PMS7003;48602;45.192;5.722;2023-07-24T13:14:01;18.50;15.00;12.00
62547;PMS7003;48602;45.192;5.722;2023-07-24T13:16:27;16.50;16.50;12.75
62547;PMS7003;48602;45.192;5.722;2023-07-24T13:18:52;14.25;12.00;9.75
62547;PMS7003;48602;45.192;5.722;2023-07-24T13:21:18;14.00;12.25;10.00
62547;PMS7003;48602;45.192;5.722;2023-07-24T13:23:43;15.75;14.75;11.75
62547;PMS7003;48602;45.192;5.722;2023-07-24T13:26:08;15.25;13.50;11.25
62547;PMS7003;48602;45.192;5.722;2023-07-24T13:28:36;16.00;15.25;12.50
62547;PMS7003;48602;45.192;5.722;2023-07-24T13:31:10;13.60;13.20;11.80
62547;PMS7003;48602;45.192;5.722;2023-07-24T13:33:39;15.75;15.25;11.25
62547;PMS7003;48602;45.192;5.722;2023-07-24T13:36:05;16.25;15.00;12.00
62547;PMS7003;48602;45.192;5.722;2023-07-24T13:38:30;14.00;11.50;10.25
62547;PMS7003;48602;45.192;5.722;2023-07-24T13:40:57;14.40;14.40;11.40
62547;PMS7003;48602;45.192;5.722;2023-07-24T13:43:23;10.75;10.75;9.00
62547;PMS7003;48602;45.192;5.722;2023-07-24T13:45:48;13.25;11.50;9.50
62547;PMS7003;48602;45.192;5.722;2023-07-24T13:48:13;16.00;12.25;8.75
62547;PMS7003;48602;45.192;5.722;2023-07-24T13:50:39;16.25;13.75;11.25
62547;PMS7003;48602;45.192;5.722;2023-07-24T13:53:04;16.75;15.75;12.75
62547;PMS7003;48602;45.192;5.722;2023-07-24T13:55:30;14.75;14.00;9.50
62547;PMS7003;48602;45.192;5.722;2023-07-24T13:57:55;15.25;13.75;11.00
62547;PMS7003;48602;45.192;5.722;2023-07-24T14:00:21;12.25;11.50;9.75
62547;PMS7003;48602;45.192;5.722;2023-07-24T14:02:46;14.50;11.25;10.50